sensor_id;sensor_type;location;lat;lon;timestamp;pressure;altitude;pressure_sealevel;temperature;humidity
38812;BME280;24553;51.640;-0.752;2023-02-19T00:01:22;101425.44;;;10.81;100.00
38812;BME280;24553;51.640;-0.752;2023-02-19T00:03:56;101426.44;;;10.80;100.00
38812;BME280;24553;51.640;-0.752;2023-02-19T00:06:25;101434.75;;;10.77;100.00
38812;BME280;24553;51.640;-0.752;2023-02-19T00:08:50;101438.38;;;10.76;100.00
38812;BME280;24553;51.640;-0.752;2023-02-19T00:11:18;101439.38;;;10.75;100.00
38812;BME280;24553;51.640;-0.752;2023-02-19T00:13:46;101444.50;;;10.76;100.00
38812;BME280;24553;51.640;-0.752;2023-02-19T00:16:13;101437.38;;;10.85;100.00
38812;BME280;24553;51.640;-0.752;2023-02-19T00:18:39;101440.91;;;10.69;100.00
38812;BME280;24553;51.640;-0.752;2023-02-19T00:21:04;101450.34;;;10.72;100.00
38812;BME280;24553;51.640;-0.752;2023-02-19T00:23:30;101464.25;;;10.65;100.00
38812;BME280;24553;51.640;-0.752;2023-02-19T00:25:56;101457.97;;;10.66;100.00
38812;BME280;24553;51.640;-0.752;2023-02-19T00:28:21;101462.63;;;10.56;100.00
38812;BME280;24553;51.640;-0.752;2023-02-19T00:30:47;101469.41;;;10.34;100.00
38812;BME280;24553;51.640;-0.752;2023-02-19T00:33:12;101469.84;;;10.21;100.00
38812;BME280;24553;51.640;-0.752;2023-02-19T00:35:38;101485.44;;;10.16;100.00
38812;BME280;24553;51.640;-0.752;2023-02-19T00:38:03;101478.63;;;10.22;100.00
38812;BME280;24553;51.640;-0.752;2023-02-19T00:40:29;101473.06;;;10.33;100.00
38812;BME280;24553;51.640;-0.752;2023-02-19T00:42:54;101473.88;;;10.34;100.00
38812;BME280;24553;51.640;-0.752;2023-02-19T00:45:20;101471.19;;;10.17;100.00
38812;BME280;24553;51.640;-0.752;2023-02-19T00:47:45;101471.19;;;10.17;100.00
38812;BME280;24553;51.640;-0.752;2023-02-19T00:50:11;101480.13;;;10.08;100.00
38812;BME280;24553;51.640;-0.752;2023-02-19T00:52:36;101479.13;;;10.09;100.00
38812;BME280;24553;51.640;-0.752;2023-02-19T00:55:01;101486.09;;;10.10;100.00
38812;BME280;24553;51.640;-0.752;2023-02-19T00:57:27;101495.66;;;9.95;100.00
38812;BME280;24553;51.640;-0.752;2023-02-19T00:59:52;101494.38;;;10.07;100.00
38812;BME280;24553;51.640;-0.752;2023-02-19T01:02:17;101489.19;;;9.89;100.00
38812;BME280;24553;51.640;-0.752;2023-02-19T01:04:43;101500.66;;;10.06;100.00
38812;BME280;24553;51.640;-0.752;2023-02-19T01:07:08;101493.50;;;9.98;100.00
38812;BME280;24553;51.640;-0.752;2023-02-19T01:09:34;101495.13;;;9.91;100.00
38812;BME280;24553;51.640;-0.752;2023-02-19T01:11:59;101500.28;;;9.85;100.00
38812;BME280;24553;51.640;-0.752;2023-02-19T01:14:25;101499.88;;;9.63;100.00
38812;BME280;24553;51.640;-0.752;2023-02-19T01:16:50;101503.16;;;9.65;100.00
38812;BME280;24553;51.640;-0.752;2023-02-19T01:19:15;101506.31;;;9.60;100.00
38812;BME280;24553;51.640;-0.752;2023-02-19T01:21:41;101498.72;;;9.66;100.00
38812;BME280;24553;51.640;-0.752;2023-02-19T01:24:06;101508.44;;;9.57;100.00
38812;BME280;24553;51.640;-0.752;2023-02-19T01:26:32;101499.94;;;9.79;100.00
38812;BME280;24553;51.640;-0.752;2023-02-19T01:29:01;101502.38;;;9.73;100.00
38812;BME280;24553;51.640;-0.752;2023-02-19T01:31:27;101508.28;;;9.58;100.00
38812;BME280;24553;51.640;-0.752;2023-02-19T01:33:55;101512.34;;;9.45;100.00
38812;BME280;24553;51.640;-0.752;2023-02-19T01:36:21;101525.59;;;9.45;100.00
38812;BME280;24553;51.640;-0.752;2023-02-19T01:38:47;101524.41;;;9.39;100.00
38812;BME280;24553;51.640;-0.752;2023-02-19T01:41:16;101517.25;;;9.31;100.00
38812;BME280;24553;51.640;-0.752;2023-02-19T01:46:32;101522.75;;;9.38;100.00
38812;BME280;24553;51.640;-0.752;2023-02-19T01:49:19;101517.25;;;9.31;100.00
38812;BME280;24553;51.640;-0.752;2023-02-19T01:51:48;101520.56;;;9.33;100.00
38812;BME280;24553;51.640;-0.752;2023-02-19T01:54:16;101523.59;;;9.38;100.00
38812;BME280;24553;51.640;-0.752;2023-02-19T01:56:44;101520.41;;;9.27;100.00
38812;BME280;24553;51.640;-0.752;2023-02-19T01:59:13;101517.56;;;9.28;100.00
38812;BME280;24553;51.640;-0.752;2023-02-19T02:01:40;101515.91;;;9.27;100.00
38812;BME280;24553;51.640;-0.752;2023-02-19T02:04:07;101512.56;;;9.17;100.00
38812;BME280;24553;51.640;-0.752;2023-02-19T02:06:48;101524.09;;;9.16;100.00
38812;BME280;24553;51.640;-0.752;2023-02-19T02:09:16;101518.72;;;9.00;100.00
38812;BME280;24553;51.640;-0.752;2023-02-19T02:12:02;101528.56;;;8.89;100.00
38812;BME280;24553;51.640;-0.752;2023-02-19T02:14:30;101536.03;;;8.68;100.00
38812;BME280;24553;51.640;-0.752;2023-02-19T02:22:04;101544.16;;;8.74;100.00
38812;BME280;24553;51.640;-0.752;2023-02-19T02:24:52;101548.56;;;8.66;100.00
38812;BME280;24553;51.640;-0.752;2023-02-19T02:32:53;101573.91;;;8.41;100.00
38812;BME280;24553;51.640;-0.752;2023-02-19T02:35:28;101570.16;;;8.43;100.00
38812;BME280;24553;51.640;-0.752;2023-02-19T02:37:59;101571.16;;;8.60;100.00
38812;BME280;24553;51.640;-0.752;2023-02-19T02:40:25;101575.06;;;8.74;100.00
38812;BME280;24553;51.640;-0.752;2023-02-19T02:42:50;101569.94;;;8.72;100.00
38812;BME280;24553;51.640;-0.752;2023-02-19T02:45:27;101579.50;;;8.91;100.00
38812;BME280;24553;51.640;-0.752;2023-02-19T02:48:25;101580.41;;;9.26;100.00
38812;BME280;24553;51.640;-0.752;2023-02-19T02:56:29;101568.19;;;9.59;100.00
38812;BME280;24553;51.640;-0.752;2023-02-19T02:58:55;101566.06;;;9.63;100.00
38812;BME280;24553;51.640;-0.752;2023-02-19T03:01:33;101572.69;;;9.67;100.00
38812;BME280;24553;51.640;-0.752;2023-02-19T03:07:54;101568.56;;;9.65;100.00
38812;BME280;24553;51.640;-0.752;2023-02-19T03:10:26;101573.03;;;9.64;100.00
38812;BME280;24553;51.640;-0.752;2023-02-19T03:12:54;101575.53;;;9.66;100.00
38812;BME280;24553;51.640;-0.752;2023-02-19T03:15:49;101579.94;;;9.57;100.00
38812;BME280;24553;51.640;-0.752;2023-02-19T03:18:36;101588.69;;;9.57;100.00
38812;BME280;24553;51.640;-0.752;2023-02-19T03:21:22;101596.03;;;9.64;100.00
38812;BME280;24553;51.640;-0.752;2023-02-19T03:23:48;101595.81;;;9.57;100.00
38812;BME280;24553;51.640;-0.752;2023-02-19T03:26:34;101596.13;;;9.54;100.00
38812;BME280;24553;51.640;-0.752;2023-02-19T03:29:02;101588.22;;;9.62;100.00
38812;BME280;24553;51.640;-0.752;2023-02-19T03:31:48;101600.16;;;9.58;100.00
38812;BME280;24553;51.640;-0.752;2023-02-19T03:34:26;101597.91;;;9.45;100.00
38812;BME280;24553;51.640;-0.752;2023-02-19T03:37:11;101619.50;;;9.32;100.00
38812;BME280;24553;51.640;-0.752;2023-02-19T03:39:39;101617.09;;;9.47;100.00
38812;BME280;24553;51.640;-0.752;2023-02-19T03:42:19;101616.81;;;9.50;100.00
38812;BME280;24553;51.640;-0.752;2023-02-19T03:47:22;101612.03;;;9.54;100.00
38812;BME280;24553;51.640;-0.752;2023-02-19T03:55:31;101629.56;;;9.55;100.00
38812;BME280;24553;51.640;-0.752;2023-02-19T03:58:34;101635.84;;;9.54;100.00
38812;BME280;24553;51.640;-0.752;2023-02-19T04:01:06;101635.16;;;9.52;100.00
38812;BME280;24553;51.640;-0.752;2023-02-19T04:03:43;101637.81;;;9.52;100.00
38812;BME280;24553;51.640;-0.752;2023-02-19T04:06:16;101645.31;;;9.56;100.00
38812;BME280;24553;51.640;-0.752;2023-02-19T04:08:48;101648.69;;;9.67;100.00
38812;BME280;24553;51.640;-0.752;2023-02-19T04:11:17;101648.81;;;9.65;100.00
38812;BME280;24553;51.640;-0.752;2023-02-19T04:13:53;101631.53;;;9.79;100.00
38812;BME280;24553;51.640;-0.752;2023-02-19T04:16:24;101641.53;;;9.93;100.00
38812;BME280;24553;51.640;-0.752;2023-02-19T04:18:53;101644.53;;;9.98;100.00
38812;BME280;24553;51.640;-0.752;2023-02-19T04:21:21;101644.56;;;10.07;100.00
38812;BME280;24553;51.640;-0.752;2023-02-19T04:23:47;101655.22;;;10.15;100.00
38812;BME280;24553;51.640;-0.752;2023-02-19T04:26:14;101650.09;;;10.21;100.00
38812;BME280;24553;51.640;-0.752;2023-02-19T04:28:41;101657.47;;;10.28;100.00
38812;BME280;24553;51.640;-0.752;2023-02-19T04:31:08;101665.31;;;10.19;100.00
38812;BME280;24553;51.640;-0.752;2023-02-19T04:33:34;101674.69;;;10.32;100.00
38812;BME280;24553;51.640;-0.752;2023-02-19T04:35:59;101667.06;;;10.37;100.00
38812;BME280;24553;51.640;-0.752;2023-02-19T04:38:24;101671.88;;;10.33;100.00
38812;BME280;24553;51.640;-0.752;2023-02-19T04:40:50;101670.41;;;10.39;100.00
38812;BME280;24553;51.640;-0.752;2023-02-19T04:43:16;101672.97;;;9.62;100.00
38812;BME280;24553;51.640;-0.752;2023-02-19T04:45:42;101675.31;;;9.65;100.00
38812;BME280;24553;51.640;-0.752;2023-02-19T04:48:07;101675.22;;;9.31;100.00
38812;BME280;24553;51.640;-0.752;2023-02-19T04:50:33;101669.72;;;10.29;100.00
38812;BME280;24553;51.640;-0.752;2023-02-19T04:52:58;101675.59;;;10.48;100.00
38812;BME280;24553;51.640;-0.752;2023-02-19T04:55:23;101693.63;;;8.97;100.00
38812;BME280;24553;51.640;-0.752;2023-02-19T04:57:49;101693.31;;;8.82;100.00
38812;BME280;24553;51.640;-0.752;2023-02-19T05:00:14;101707.34;;;8.82;100.00
38812;BME280;24553;51.640;-0.752;2023-02-19T05:02:40;101700.94;;;8.85;100.00
38812;BME280;24553;51.640;-0.752;2023-02-19T05:05:05;101710.19;;;8.99;100.00
38812;BME280;24553;51.640;-0.752;2023-02-19T05:07:32;101710.66;;;10.08;100.00
38812;BME280;24553;51.640;-0.752;2023-02-19T05:09:58;101703.22;;;10.38;100.00
38812;BME280;24553;51.640;-0.752;2023-02-19T05:12:24;101701.91;;;10.42;100.00
38812;BME280;24553;51.640;-0.752;2023-02-19T05:14:49;101693.94;;;10.42;100.00
38812;BME280;24553;51.640;-0.752;2023-02-19T05:17:15;101702.56;;;10.36;100.00
38812;BME280;24553;51.640;-0.752;2023-02-19T05:19:40;101709.53;;;10.45;100.00
38812;BME280;24553;51.640;-0.752;2023-02-19T05:22:05;101704.56;;;10.50;100.00
38812;BME280;24553;51.640;-0.752;2023-02-19T05:24:31;101706.38;;;10.41;100.00
38812;BME280;24553;51.640;-0.752;2023-02-19T05:26:56;101705.66;;;10.31;100.00
38812;BME280;24553;51.640;-0.752;2023-02-19T05:29:21;101708.88;;;10.43;100.00
38812;BME280;24553;51.640;-0.752;2023-02-19T05:31:47;101719.47;;;10.43;100.00
38812;BME280;24553;51.640;-0.752;2023-02-19T05:34:13;101729.13;;;10.52;100.00
38812;BME280;24553;51.640;-0.752;2023-02-19T05:36:38;101721.97;;;10.53;100.00
38812;BME280;24553;51.640;-0.752;2023-02-19T05:39:04;101722.28;;;10.41;100.00
38812;BME280;24553;51.640;-0.752;2023-02-19T05:41:32;101724.91;;;10.33;100.00
38812;BME280;24553;51.640;-0.752;2023-02-19T05:43:57;101719.59;;;10.33;100.00
38812;BME280;24553;51.640;-0.752;2023-02-19T05:46:25;101723.44;;;10.39;100.00
38812;BME280;24553;51.640;-0.752;2023-02-19T05:48:52;101727.44;;;10.43;100.00
38812;BME280;24553;51.640;-0.752;2023-02-19T05:51:19;101717.41;;;10.29;100.00
38812;BME280;24553;51.640;-0.752;2023-02-19T05:53:46;101726.41;;;10.10;100.00
38812;BME280;24553;51.640;-0.752;2023-02-19T05:56:39;101731.78;;;9.92;100.00
38812;BME280;24553;51.640;-0.752;2023-02-19T05:59:20;101730.72;;;9.85;100.00
38812;BME280;24553;51.640;-0.752;2023-02-19T06:01:47;101728.53;;;9.80;100.00
38812;BME280;24553;51.640;-0.752;2023-02-19T06:04:13;101736.34;;;9.81;100.00
38812;BME280;24553;51.640;-0.752;2023-02-19T06:06:39;101737.13;;;9.74;100.00
38812;BME280;24553;51.640;-0.752;2023-02-19T06:09:06;101749.19;;;9.50;100.00
38812;BME280;24553;51.640;-0.752;2023-02-19T06:11:32;101765.06;;;9.50;100.00
38812;BME280;24553;51.640;-0.752;2023-02-19T06:13:58;101760.31;;;9.36;100.00
38812;BME280;24553;51.640;-0.752;2023-02-19T06:16:23;101765.00;;;9.24;100.00
38812;BME280;24553;51.640;-0.752;2023-02-19T06:18:49;101766.13;;;9.22;100.00
38812;BME280;24553;51.640;-0.752;2023-02-19T06:21:15;101762.44;;;9.32;100.00
38812;BME280;24553;51.640;-0.752;2023-02-19T06:23:42;101774.81;;;9.14;100.00
38812;BME280;24553;51.640;-0.752;2023-02-19T06:28:42;101778.50;;;9.21;100.00
38812;BME280;24553;51.640;-0.752;2023-02-19T06:31:08;101781.34;;;9.37;100.00
38812;BME280;24553;51.640;-0.752;2023-02-19T06:33:34;101785.56;;;9.66;100.00
38812;BME280;24553;51.640;-0.752;2023-02-19T06:36:01;101789.53;;;9.88;100.00
38812;BME280;24553;51.640;-0.752;2023-02-19T06:38:27;101786.72;;;9.90;100.00
38812;BME280;24553;51.640;-0.752;2023-02-19T06:40:53;101787.16;;;10.03;100.00
38812;BME280;24553;51.640;-0.752;2023-02-19T06:43:18;101775.34;;;9.97;100.00
38812;BME280;24553;51.640;-0.752;2023-02-19T06:45:44;101765.53;;;9.90;100.00
38812;BME280;24553;51.640;-0.752;2023-02-19T06:48:09;101766.16;;;9.83;100.00
38812;BME280;24553;51.640;-0.752;2023-02-19T06:50:35;101774.13;;;9.83;100.00
38812;BME280;24553;51.640;-0.752;2023-02-19T06:53:00;101783.34;;;9.79;100.00
38812;BME280;24553;51.640;-0.752;2023-02-19T06:55:25;101781.09;;;9.67;100.00
38812;BME280;24553;51.640;-0.752;2023-02-19T06:57:51;101793.25;;;9.77;100.00
38812;BME280;24553;51.640;-0.752;2023-02-19T07:00:16;101791.59;;;9.76;100.00
38812;BME280;24553;51.640;-0.752;2023-02-19T07:02:42;101792.69;;;8.84;100.00
38812;BME280;24553;51.640;-0.752;2023-02-19T07:05:07;101813.72;;;8.86;100.00
38812;BME280;24553;51.640;-0.752;2023-02-19T07:07:32;101821.69;;;9.39;100.00
38812;BME280;24553;51.640;-0.752;2023-02-19T07:09:58;101822.41;;;9.59;100.00
38812;BME280;24553;51.640;-0.752;2023-02-19T07:12:23;101822.94;;;9.63;100.00
38812;BME280;24553;51.640;-0.752;2023-02-19T07:14:48;101824.34;;;9.75;100.00
38812;BME280;24553;51.640;-0.752;2023-02-19T07:17:14;101836.38;;;9.88;100.00
38812;BME280;24553;51.640;-0.752;2023-02-19T07:19:39;101840.22;;;9.93;100.00
38812;BME280;24553;51.640;-0.752;2023-02-19T07:22:04;101843.06;;;9.92;100.00
38812;BME280;24553;51.640;-0.752;2023-02-19T07:24:30;101845.63;;;9.83;100.00
38812;BME280;24553;51.640;-0.752;2023-02-19T07:26:55;101846.16;;;9.69;100.00
38812;BME280;24553;51.640;-0.752;2023-02-19T07:29:20;101849.13;;;9.66;100.00
38812;BME280;24553;51.640;-0.752;2023-02-19T07:31:46;101848.56;;;9.63;100.00
38812;BME280;24553;51.640;-0.752;2023-02-19T07:34:11;101857.59;;;9.70;100.00
38812;BME280;24553;51.640;-0.752;2023-02-19T07:36:36;101857.44;;;9.71;100.00
38812;BME280;24553;51.640;-0.752;2023-02-19T07:39:03;101870.75;;;9.61;100.00
38812;BME280;24553;51.640;-0.752;2023-02-19T07:41:28;101862.75;;;9.71;100.00
38812;BME280;24553;51.640;-0.752;2023-02-19T07:43:54;101871.88;;;9.77;100.00
38812;BME280;24553;51.640;-0.752;2023-02-19T07:46:19;101873.78;;;9.67;100.00
38812;BME280;24553;51.640;-0.752;2023-02-19T07:48:45;101881.59;;;9.86;100.00
38812;BME280;24553;51.640;-0.752;2023-02-19T07:51:14;101886.56;;;9.89;100.00
38812;BME280;24553;51.640;-0.752;2023-02-19T07:53:43;101887.53;;;9.88;100.00
38812;BME280;24553;51.640;-0.752;2023-02-19T07:56:09;101890.75;;;9.92;100.00
38812;BME280;24553;51.640;-0.752;2023-02-19T07:58:35;101896.19;;;9.90;100.00
38812;BME280;24553;51.640;-0.752;2023-02-19T08:01:18;101884.81;;;9.80;100.00
38812;BME280;24553;51.640;-0.752;2023-02-19T08:04:04;101892.69;;;9.72;100.00
38812;BME280;24553;51.640;-0.752;2023-02-19T08:06:29;101894.84;;;9.68;100.00
38812;BME280;24553;51.640;-0.752;2023-02-19T08:08:54;101897.84;;;9.73;100.00
38812;BME280;24553;51.640;-0.752;2023-02-19T08:11:21;101909.66;;;9.61;100.00
38812;BME280;24553;51.640;-0.752;2023-02-19T08:14:05;101933.78;;;9.58;100.00
38812;BME280;24553;51.640;-0.752;2023-02-19T08:16:30;101950.44;;;9.68;100.00
38812;BME280;24553;51.640;-0.752;2023-02-19T08:18:55;101960.75;;;9.71;100.00
38812;BME280;24553;51.640;-0.752;2023-02-19T08:21:21;101959.44;;;9.75;100.00
38812;BME280;24553;51.640;-0.752;2023-02-19T08:23:46;101979.09;;;9.73;100.00
38812;BME280;24553;51.640;-0.752;2023-02-19T08:26:12;101980.09;;;9.72;100.00
38812;BME280;24553;51.640;-0.752;2023-02-19T08:28:37;101968.69;;;9.71;100.00
38812;BME280;24553;51.640;-0.752;2023-02-19T08:31:05;101956.19;;;9.64;100.00
38812;BME280;24553;51.640;-0.752;2023-02-19T08:33:31;101944.47;;;9.66;100.00
38812;BME280;24553;51.640;-0.752;2023-02-19T08:36:01;101943.53;;;9.75;100.00
38812;BME280;24553;51.640;-0.752;2023-02-19T08:38:28;101944.94;;;9.79;100.00
38812;BME280;24553;51.640;-0.752;2023-02-19T08:40:54;101944.94;;;9.79;100.00
38812;BME280;24553;51.640;-0.752;2023-02-19T08:43:19;101936.97;;;9.79;100.00
38812;BME280;24553;51.640;-0.752;2023-02-19T08:45:45;101926.81;;;9.75;100.00
38812;BME280;24553;51.640;-0.752;2023-02-19T08:48:11;101927.19;;;9.62;100.00
38812;BME280;24553;51.640;-0.752;2023-02-19T08:50:37;101931.78;;;9.60;100.00
38812;BME280;24553;51.640;-0.752;2023-02-19T08:53:04;101935.75;;;9.56;100.00
38812;BME280;24553;51.640;-0.752;2023-02-19T08:55:30;101950.72;;;9.65;100.00
38812;BME280;24553;51.640;-0.752;2023-02-19T08:57:55;101960.34;;;9.66;100.00
38812;BME280;24553;51.640;-0.752;2023-02-19T09:00:21;101971.41;;;9.79;100.00
38812;BME280;24553;51.640;-0.752;2023-02-19T09:02:47;101953.56;;;9.81;100.00
38812;BME280;24553;51.640;-0.752;2023-02-19T09:05:13;101961.28;;;9.93;100.00
38812;BME280;24553;51.640;-0.752;2023-02-19T09:07:39;101946.06;;;9.95;100.00
38812;BME280;24553;51.640;-0.752;2023-02-19T09:10:05;101943.13;;;9.98;100.00
38812;BME280;24553;51.640;-0.752;2023-02-19T09:12:31;101950.81;;;10.09;100.00
38812;BME280;24553;51.640;-0.752;2023-02-19T09:14:57;101969.09;;;10.12;100.00
38812;BME280;24553;51.640;-0.752;2023-02-19T09:17:23;101972.50;;;10.22;100.00
38812;BME280;24553;51.640;-0.752;2023-02-19T09:19:48;101963.88;;;10.20;100.00
38812;BME280;24553;51.640;-0.752;2023-02-19T09:22:13;101970.13;;;10.19;100.00
38812;BME280;24553;51.640;-0.752;2023-02-19T09:24:39;101968.44;;;10.28;100.00
38812;BME280;24553;51.640;-0.752;2023-02-19T09:27:04;101961.69;;;10.34;100.00
38812;BME280;24553;51.640;-0.752;2023-02-19T09:29:30;101970.38;;;10.44;100.00
38812;BME280;24553;51.640;-0.752;2023-02-19T09:31:59;101977.97;;;10.39;100.00
38812;BME280;24553;51.640;-0.752;2023-02-19T09:34:26;101977.06;;;10.30;100.00
38812;BME280;24553;51.640;-0.752;2023-02-19T09:36:52;101976.94;;;10.22;100.00
38812;BME280;24553;51.640;-0.752;2023-02-19T09:39:18;101984.84;;;10.14;100.00
38812;BME280;24553;51.640;-0.752;2023-02-19T09:41:56;101994.63;;;10.31;100.00
38812;BME280;24553;51.640;-0.752;2023-02-19T09:44:31;102019.19;;;10.51;100.00
38812;BME280;24553;51.640;-0.752;2023-02-19T09:46:57;102021.88;;;10.77;100.00
38812;BME280;24553;51.640;-0.752;2023-02-19T09:52:05;102005.69;;;10.88;100.00
38812;BME280;24553;51.640;-0.752;2023-02-19T09:54:32;102009.44;;;10.78;100.00
38812;BME280;24553;51.640;-0.752;2023-02-19T09:57:00;101996.03;;;10.79;100.00
38812;BME280;24553;51.640;-0.752;2023-02-19T09:59:35;102011.91;;;10.97;100.00
38812;BME280;24553;51.640;-0.752;2023-02-19T10:02:13;102011.09;;;10.79;100.00
38812;BME280;24553;51.640;-0.752;2023-02-19T10:04:42;102015.66;;;10.68;100.00
38812;BME280;24553;51.640;-0.752;2023-02-19T10:07:18;102019.34;;;10.76;100.00
38812;BME280;24553;51.640;-0.752;2023-02-19T10:09:57;102012.22;;;10.76;100.00
38812;BME280;24553;51.640;-0.752;2023-02-19T10:12:26;102003.34;;;10.85;100.00
38812;BME280;24553;51.640;-0.752;2023-02-19T10:14:58;102006.03;;;10.94;100.00
38812;BME280;24553;51.640;-0.752;2023-02-19T10:17:27;102009.75;;;11.01;100.00
38812;BME280;24553;51.640;-0.752;2023-02-19T10:19:56;102014.75;;;11.38;100.00
38812;BME280;24553;51.640;-0.752;2023-02-19T10:22:22;102006.78;;;11.38;100.00
38812;BME280;24553;51.640;-0.752;2023-02-19T10:24:51;102014.50;;;11.49;100.00
38812;BME280;24553;51.640;-0.752;2023-02-19T10:27:18;102015.91;;;11.78;100.00
38812;BME280;24553;51.640;-0.752;2023-02-19T10:29:45;102015.91;;;11.70;100.00
38812;BME280;24553;51.640;-0.752;2023-02-19T10:32:17;102020.84;;;11.56;100.00
38812;BME280;24553;51.640;-0.752;2023-02-19T10:34:45;102010.22;;;11.56;100.00
38812;BME280;24553;51.640;-0.752;2023-02-19T10:37:14;102011.28;;;11.38;100.00
38812;BME280;24553;51.640;-0.752;2023-02-19T10:39:49;102011.25;;;11.29;100.00
38812;BME280;24553;51.640;-0.752;2023-02-19T10:42:21;102018.44;;;11.45;100.00
38812;BME280;24553;51.640;-0.752;2023-02-19T10:44:55;102028.34;;;11.35;100.00
38812;BME280;24553;51.640;-0.752;2023-02-19T10:47:24;102019.59;;;11.43;100.00
38812;BME280;24553;51.640;-0.752;2023-02-19T10:49:52;102031.53;;;11.39;100.00
38812;BME280;24553;51.640;-0.752;2023-02-19T10:52:24;102013.25;;;11.35;100.00
38812;BME280;24553;51.640;-0.752;2023-02-19T10:55:23;102028.50;;;11.68;100.00
38812;BME280;24553;51.640;-0.752;2023-02-19T10:57:48;102036.09;;;11.54;100.00
38812;BME280;24553;51.640;-0.752;2023-02-19T11:02:43;102041.59;;;11.95;100.00
38812;BME280;24553;51.640;-0.752;2023-02-19T11:07:38;102037.34;;;12.43;100.00
38812;BME280;24553;51.640;-0.752;2023-02-19T11:10:19;102038.84;;;12.62;100.00
38812;BME280;24553;51.640;-0.752;2023-02-19T11:12:47;102040.13;;;12.26;100.00
38812;BME280;24553;51.640;-0.752;2023-02-19T11:17:52;102051.16;;;11.80;100.00
38812;BME280;24553;51.640;-0.752;2023-02-19T11:20:18;102056.03;;;11.67;100.00
38812;BME280;24553;51.640;-0.752;2023-02-19T11:22:44;102060.09;;;11.79;100.00
38812;BME280;24553;51.640;-0.752;2023-02-19T11:32:56;102053.97;;;12.86;100.00
38812;BME280;24553;51.640;-0.752;2023-02-19T11:35:28;102056.13;;;12.99;100.00
38812;BME280;24553;51.640;-0.752;2023-02-19T11:37:59;102055.25;;;13.31;100.00
38812;BME280;24553;51.640;-0.752;2023-02-19T11:40:38;102060.25;;;13.35;100.00
38812;BME280;24553;51.640;-0.752;2023-02-19T11:43:15;102050.09;;;13.22;100.00
38812;BME280;24553;51.640;-0.752;2023-02-19T11:51:04;102047.66;;;12.79;100.00
38812;BME280;24553;51.640;-0.752;2023-02-19T11:53:42;102043.81;;;13.06;100.00
38812;BME280;24553;51.640;-0.752;2023-02-19T11:56:17;102044.59;;;13.31;100.00
38812;BME280;24553;51.640;-0.752;2023-02-19T11:59:02;102043.53;;;13.49;100.00
38812;BME280;24553;51.640;-0.752;2023-02-19T12:13:03;102013.69;;;13.93;100.00
38812;BME280;24553;51.640;-0.752;2023-02-19T12:21:15;101988.75;;;14.55;100.00
38812;BME280;24553;51.640;-0.752;2023-02-19T12:31:54;101975.03;;;14.35;100.00
38812;BME280;24553;51.640;-0.752;2023-02-19T12:45:35;101969.56;;;14.51;100.00
38812;BME280;24553;51.640;-0.752;2023-02-19T12:48:19;101958.72;;;14.53;100.00
38812;BME280;24553;51.640;-0.752;2023-02-19T12:50:57;101948.31;;;14.43;100.00
38812;BME280;24553;51.640;-0.752;2023-02-19T12:53:39;101956.59;;;14.48;100.00
38812;BME280;24553;51.640;-0.752;2023-02-19T12:56:33;101949.72;;;14.69;100.00
38812;BME280;24553;51.640;-0.752;2023-02-19T12:59:04;101957.53;;;14.55;100.00
38812;BME280;24553;51.640;-0.752;2023-02-19T13:01:41;101960.03;;;14.57;100.00
38812;BME280;24553;51.640;-0.752;2023-02-19T13:04:16;101943.38;;;14.55;100.00
38812;BME280;24553;51.640;-0.752;2023-02-19T13:09:42;101952.84;;;14.57;100.00
38812;BME280;24553;51.640;-0.752;2023-02-19T13:12:16;101955.47;;;14.43;100.00
38812;BME280;24553;51.640;-0.752;2023-02-19T13:14:46;101952.13;;;14.26;100.00
38812;BME280;24553;51.640;-0.752;2023-02-19T13:17:23;101950.59;;;13.54;100.00
38812;BME280;24553;51.640;-0.752;2023-02-19T13:19:56;101934.34;;;13.95;100.00
38812;BME280;24553;51.640;-0.752;2023-02-19T13:25:31;101939.66;;;14.41;100.00
38812;BME280;24553;51.640;-0.752;2023-02-19T13:28:12;101930.78;;;14.78;100.00
38812;BME280;24553;51.640;-0.752;2023-02-19T13:33:30;101924.91;;;14.98;100.00
38812;BME280;24553;51.640;-0.752;2023-02-19T13:36:22;101937.03;;;14.71;100.00
38812;BME280;24553;51.640;-0.752;2023-02-19T13:38:49;101941.59;;;15.00;100.00
38812;BME280;24553;51.640;-0.752;2023-02-19T13:43:58;101938.97;;;15.36;100.00
38812;BME280;24553;51.640;-0.752;2023-02-19T13:46:32;101946.88;;;15.30;100.00
38812;BME280;24553;51.640;-0.752;2023-02-19T13:51:48;101935.50;;;14.91;100.00
38812;BME280;24553;51.640;-0.752;2023-02-19T13:54:33;101925.00;;;14.75;100.00
38812;BME280;24553;51.640;-0.752;2023-02-19T13:59:52;101928.22;;;14.85;100.00
38812;BME280;24553;51.640;-0.752;2023-02-19T14:04:53;101919.66;;;14.75;100.00
38812;BME280;24553;51.640;-0.752;2023-02-19T14:09:51;101918.53;;;14.84;100.00
38812;BME280;24553;51.640;-0.752;2023-02-19T14:12:18;101914.38;;;14.81;100.00
38812;BME280;24553;51.640;-0.752;2023-02-19T14:25:27;101914.28;;;15.04;100.00
38812;BME280;24553;51.640;-0.752;2023-02-19T14:28:03;101918.84;;;14.74;100.00
38812;BME280;24553;51.640;-0.752;2023-02-19T14:30:32;101914.88;;;14.85;100.00
38812;BME280;24553;51.640;-0.752;2023-02-19T14:33:02;101914.41;;;14.96;100.00
38812;BME280;24553;51.640;-0.752;2023-02-19T14:35:46;101916.69;;;15.29;100.00
38812;BME280;24553;51.640;-0.752;2023-02-19T14:38:46;101910.19;;;15.38;100.00
38812;BME280;24553;51.640;-0.752;2023-02-19T14:41:14;101903.84;;;15.39;100.00
38812;BME280;24553;51.640;-0.752;2023-02-19T14:43:42;101899.75;;;15.43;100.00
38812;BME280;24553;51.640;-0.752;2023-02-19T14:46:30;101907.72;;;15.37;100.00
38812;BME280;24553;51.640;-0.752;2023-02-19T14:49:05;101920.44;;;15.35;100.00
38812;BME280;24553;51.640;-0.752;2023-02-19T14:51:39;101910.50;;;15.29;100.00
38812;BME280;24553;51.640;-0.752;2023-02-19T14:54:20;101902.06;;;15.10;100.00